Time;durP1;ratioP1;P1;durP2;ratioP2;P2;SDS_P1;SDS_P2;PMS_P1;PMS_P2;Temp;Humidity;BMP_temperature;BMP_pressure;BME280_temperature;BME280_humidity;BME280_pressure;Samples;Min_cycle;Max_cycle;Signal;HPM_P1;HPM_P2
2022/10/22 00:01:00;;;;;;;6.87;2.57;;;16.20;89.70;;;;;;5001274;28;20999;-80
2022/10/22 00:03:28;;;;;;;7.10;2.73;;;16.10;89.70;;;;;;5013085;28;20478;-80
2022/10/22 00:05:56;;;;;;;6.83;2.43;;;16.10;89.70;;;;;;5013101;28;20465;-77
2022/10/22 00:08:25;;;;;;;6.23;2.87;;;16.10;89.70;;;;;;5000544;28;20807;-78
2022/10/22 00:10:53;;;;;;;8.87;2.60;;;16.10;89.70;;;;;;4997974;28;20486;-79
2022/10/22 00:13:22;;;;;;;5.80;2.40;;;16.10;89.60;;;;;;5013409;28;20575;-80
2022/10/22 00:15:50;;;;;;;6.17;2.33;;;16.10;89.60;;;;;;5016309;28;20449;-80
2022/10/22 00:18:18;;;;;;;5.17;2.20;;;16.10;89.50;;;;;;5016130;28;20453;-79
2022/10/22 00:20:45;;;;;;;4.73;2.17;;;16.10;89.50;;;;;;5004568;28;20457;-79
2022/10/22 00:23:13;;;;;;;7.20;2.33;;;16.10;89.50;;;;;;5002729;28;20472;-79
2022/10/22 00:25:43;;;;;;;5.53;3.00;;;16.10;89.40;;;;;;5016713;28;20584;-78
2022/10/22 00:28:11;;;;;;;5.70;2.40;;;16.10;89.40;;;;;;5000329;28;20488;-78
2022/10/22 00:30:39;;;;;;;7.40;2.87;;;16.10;89.50;;;;;;4999024;28;20449;-77
2022/10/22 00:33:07;;;;;;;6.80;2.60;;;16.10;89.50;;;;;;5014323;28;21159;-80
2022/10/22 00:35:35;;;;;;;4.97;2.57;;;16.10;89.50;;;;;;4996654;28;20467;-80
2022/10/22 00:38:03;;;;;;;6.00;2.30;;;16.10;89.40;;;;;;5013956;28;21260;-79
2022/10/22 00:40:31;;;;;;;6.40;3.13;;;16.10;89.40;;;;;;4997199;28;20484;-79
2022/10/22 00:43:00;;;;;;;17.07;7.33;;;16.10;89.40;;;;;;5014618;28;20480;-78
2022/10/22 00:45:29;;;;;;;8.93;4.33;;;16.10;89.40;;;;;;4995910;28;20461;-80
2022/10/22 00:48:01;;;;;;;5.80;3.27;;;16.00;89.30;;;;;;5015822;28;20466;-77
2022/10/22 00:50:34;;;;;;;7.60;3.93;;;16.00;89.40;;;;;;5014812;28;20469;-78
2022/10/22 00:53:03;;;;;;;5.73;3.07;;;16.00;89.40;;;;;;5015779;28;20510;-76
2022/10/22 00:55:33;;;;;;;7.20;3.40;;;16.00;89.50;;;;;;4998088;28;20453;-79
2022/10/22 00:58:04;;;;;;;8.47;3.33;;;16.00;89.50;;;;;;4993067;28;20450;-79
2022/10/22 01:00:32;;;;;;;7.37;2.97;;;16.00;89.50;;;;;;5017659;28;20468;-79
2022/10/22 01:03:00;;;;;;;5.63;3.07;;;16.00;89.50;;;;;;5002167;28;20480;-80
2022/10/22 01:05:29;;;;;;;7.23;3.60;;;16.00;89.40;;;;;;5022362;28;20495;-79
2022/10/22 01:07:57;;;;;;;15.60;3.40;;;16.00;89.40;;;;;;4999498;28;20448;-78
2022/10/22 01:10:38;;;;;;;7.50;3.20;;;16.00;89.30;;;;;;5002960;28;21073;-77
2022/10/22 01:13:25;;;;;;;7.63;3.40;;;16.00;89.30;;;;;;5018168;28;20554;-79
2022/10/22 01:16:00;;;;;;;8.00;4.00;;;16.00;89.30;;;;;;5018029;28;20456;-79
2022/10/22 01:18:35;;;;;;;7.20;3.50;;;16.00;89.40;;;;;;5002724;28;20962;-80
2022/10/22 01:21:12;;;;;;;8.17;4.00;;;16.00;89.40;;;;;;5005148;28;20452;-79
2022/10/22 01:24:03;;;;;;;7.63;3.17;;;16.00;89.30;;;;;;5001200;28;20472;-79
2022/10/22 01:26:43;;;;;;;7.00;3.17;;;16.00;89.20;;;;;;5018781;28;20469;-80
2022/10/22 01:29:18;;;;;;;6.33;2.73;;;16.00;89.10;;;;;;5010909;28;20480;-80
2022/10/22 01:31:51;;;;;;;6.43;2.57;;;15.90;89.00;;;;;;4995619;28;20456;-80
2022/10/22 01:34:20;;;;;;;6.70;2.87;;;15.90;89.10;;;;;;4995448;28;20532;-77
2022/10/22 01:36:51;;;;;;;6.70;2.60;;;15.90;89.20;;;;;;5015887;28;20468;-80
2022/10/22 01:39:20;;;;;;;7.00;3.00;;;15.90;89.20;;;;;;5000505;28;20453;-79
2022/10/22 01:41:48;;;;;;;6.30;3.17;;;15.90;89.30;;;;;;5003330;28;20506;-79
2022/10/22 01:44:28;;;;;;;5.60;2.73;;;15.90;89.20;;;;;;5000146;28;20587;-77
2022/10/22 01:47:07;;;;;;;6.83;3.43;;;15.90;89.20;;;;;;4998967;28;20631;-78
2022/10/22 01:49:50;;;;;;;5.63;2.47;;;15.90;89.20;;;;;;5000935;28;20469;-77
2022/10/22 01:52:28;;;;;;;5.17;2.70;;;15.90;89.20;;;;;;4999373;28;20520;-78
2022/10/22 01:55:12;;;;;;;14.67;3.47;;;15.90;89.10;;;;;;4995800;28;20457;-78
2022/10/22 01:57:50;;;;;;;7.40;3.33;;;15.90;89.10;;;;;;4995978;28;20953;-79
2022/10/22 02:00:20;;;;;;;7.00;2.93;;;15.90;89.10;;;;;;4998925;28;20950;-78
2022/10/22 02:02:56;;;;;;;6.13;3.23;;;15.90;89.10;;;;;;5000088;28;20472;-78
2022/10/22 02:05:32;;;;;;;7.30;3.43;;;15.90;89.10;;;;;;5003364;28;20456;-80
2022/10/22 02:08:06;;;;;;;7.40;3.30;;;15.90;89.10;;;;;;5005278;28;20448;-79
2022/10/22 02:10:36;;;;;;;6.70;3.30;;;15.80;89.00;;;;;;5005356;28;20476;-80
2022/10/22 02:13:08;;;;;;;8.63;3.97;;;15.80;88.90;;;;;;5002139;28;20477;-79
2022/10/22 02:15:39;;;;;;;6.27;2.27;;;15.80;89.00;;;;;;5018363;28;20931;-79
2022/10/22 02:18:09;;;;;;;6.60;2.73;;;15.80;89.00;;;;;;5003890;28;20449;-80
2022/10/22 02:20:40;;;;;;;5.60;2.70;;;15.80;89.10;;;;;;5011238;28;20472;-78
2022/10/22 02:23:10;;;;;;;12.03;2.57;;;15.80;89.10;;;;;;4998421;28;20473;-77
2022/10/22 02:25:41;;;;;;;6.50;2.97;;;15.80;89.10;;;;;;5000641;28;21263;-79
2022/10/22 02:28:19;;;;;;;6.40;3.03;;;15.80;89.10;;;;;;5013216;28;20457;-79
2022/10/22 02:30:52;;;;;;;5.90;2.93;;;15.80;89.10;;;;;;5015878;28;20470;-77
2022/10/22 02:33:24;;;;;;;5.80;2.57;;;15.80;89.00;;;;;;5019872;28;20481;-80
2022/10/22 02:35:53;;;;;;;7.03;2.50;;;15.80;89.00;;;;;;5000166;28;20523;-78
2022/10/22 02:38:21;;;;;;;12.60;2.87;;;15.80;88.90;;;;;;5003328;28;20449;-79
2022/10/22 02:40:49;;;;;;;5.10;2.10;;;15.80;88.70;;;;;;4999430;28;20481;-78
2022/10/22 02:43:18;;;;;;;7.20;2.57;;;15.80;88.70;;;;;;4993233;28;20544;-80
2022/10/22 02:45:47;;;;;;;4.40;1.87;;;15.80;88.80;;;;;;4994553;28;20461;-78
2022/10/22 02:48:15;;;;;;;8.17;2.30;;;15.80;88.80;;;;;;5017311;28;20483;-79
2022/10/22 02:50:43;;;;;;;5.60;2.57;;;15.80;88.80;;;;;;4993521;28;20485;-80
2022/10/22 02:53:11;;;;;;;6.53;2.27;;;15.80;88.80;;;;;;5013440;28;20547;-78
2022/10/22 02:55:39;;;;;;;5.20;1.90;;;15.80;88.70;;;;;;5017087;28;20472;-77
2022/10/22 02:58:07;;;;;;;4.00;1.67;;;15.80;88.70;;;;;;4996148;28;21008;-78
2022/10/22 03:00:35;;;;;;;5.93;1.40;;;15.80;88.70;;;;;;4999910;28;20445;-80
2022/10/22 03:03:04;;;;;;;6.10;3.00;;;15.80;88.70;;;;;;4998504;28;20985;-78
2022/10/22 03:05:32;;;;;;;4.07;1.67;;;15.80;88.60;;;;;;5004156;28;20519;-78
2022/10/22 03:08:00;;;;;;;6.00;1.97;;;15.80;88.60;;;;;;5001040;28;20453;-80
2022/10/22 03:10:28;;;;;;;4.83;1.93;;;15.80;88.60;;;;;;4995384;28;20584;-79
2022/10/22 03:12:56;;;;;;;4.90;1.60;;;15.80;88.50;;;;;;5001265;28;20496;-78
2022/10/22 03:15:24;;;;;;;6.03;1.60;;;15.80;88.60;;;;;;4998097;28;20445;-79
2022/10/22 03:17:52;;;;;;;3.73;1.17;;;15.80;88.40;;;;;;4999940;28;20457;-78
2022/10/22 03:20:21;;;;;;;3.77;1.00;;;15.80;88.50;;;;;;4998939;28;20460;-79
2022/10/22 03:22:49;;;;;;;5.87;1.20;;;15.80;88.30;;;;;;4998235;28;20522;-79
2022/10/22 03:25:21;;;;;;;4.13;1.30;;;15.80;88.30;;;;;;4999185;28;20850;-78
2022/10/22 03:27:52;;;;;;;6.60;1.57;;;15.80;88.20;;;;;;4999610;28;20481;-79
2022/10/22 03:30:20;;;;;;;4.00;1.60;;;15.80;88.20;;;;;;5001766;28;20481;-79
2022/10/22 03:32:48;;;;;;;7.03;1.70;;;15.80;88.20;;;;;;4995584;28;20489;-79
2022/10/22 03:35:16;;;;;;;4.00;1.53;;;15.80;88.10;;;;;;4995083;28;21018;-79
2022/10/22 03:37:45;;;;;;;3.60;1.33;;;15.80;88.20;;;;;;4997894;28;20465;-79
2022/10/22 03:40:13;;;;;;;3.67;1.30;;;15.80;88.20;;;;;;4996917;28;20462;-79
2022/10/22 03:42:42;;;;;;;3.90;1.50;;;15.80;88.20;;;;;;5010610;28;20488;-81
2022/10/22 03:45:11;;;;;;;4.53;1.63;;;15.80;88.20;;;;;;4997952;28;20461;-80
2022/10/22 03:47:39;;;;;;;4.97;1.50;;;15.80;88.10;;;;;;5001026;28;20503;-79
2022/10/22 03:50:08;;;;;;;6.57;1.57;;;15.80;88.10;;;;;;4995426;28;20543;-80
2022/10/22 03:52:37;;;;;;;4.67;1.70;;;15.80;88.00;;;;;;5001331;28;20468;-78
2022/10/22 03:55:08;;;;;;;4.87;1.60;;;15.80;87.90;;;;;;5014544;28;20468;-80
2022/10/22 03:57:36;;;;;;;4.07;1.47;;;15.80;88.00;;;;;;4996393;28;20519;-79
2022/10/22 04:00:06;;;;;;;3.83;1.50;;;15.80;87.90;;;;;;4997213;28;20489;-79
2022/10/22 04:02:34;;;;;;;4.53;1.27;;;15.80;87.90;;;;;;4995586;28;20516;-80
2022/10/22 04:05:02;;;;;;;4.17;1.70;;;15.80;87.90;;;;;;5004823;28;20518;-77
2022/10/22 04:07:30;;;;;;;5.43;2.10;;;15.80;87.90;;;;;;4999242;28;20463;-78
2022/10/22 04:09:58;;;;;;;5.20;1.50;;;15.80;88.00;;;;;;4997991;28;20457;-79
2022/10/22 04:12:27;;;;;;;4.47;1.90;;;15.80;87.90;;;;;;5010511;28;20477;-81
2022/10/22 04:14:55;;;;;;;3.67;1.40;;;15.80;87.90;;;;;;5002206;28;20473;-78
2022/10/22 04:17:23;;;;;;;11.50;2.27;;;15.80;87.80;;;;;;5016583;28;20515;-79
2022/10/22 04:19:51;;;;;;;4.53;1.80;;;15.70;87.90;;;;;;5002923;28;20465;-80
2022/10/22 04:22:19;;;;;;;4.50;1.77;;;15.70;87.90;;;;;;4999239;28;20461;-78
2022/10/22 04:24:47;;;;;;;3.90;1.70;;;15.80;87.90;;;;;;5017604;28;20457;-79
2022/10/22 04:27:15;;;;;;;4.10;1.60;;;15.70;87.90;;;;;;5015434;28;20462;-79
2022/10/22 04:29:44;;;;;;;4.80;2.33;;;15.80;87.90;;;;;;5012655;28;20515;-80
2022/10/22 04:32:12;;;;;;;5.30;1.43;;;15.80;87.90;;;;;;4994654;28;20477;-80
2022/10/22 04:34:40;;;;;;;7.17;2.10;;;15.80;87.90;;;;;;4996251;28;20554;-78
2022/10/22 04:37:08;;;;;;;4.03;2.00;;;15.80;87.90;;;;;;5004056;28;20449;-80
2022/10/22 04:39:36;;;;;;;4.90;2.20;;;15.80;87.90;;;;;;4996716;28;20878;-78
2022/10/22 04:42:04;;;;;;;4.07;1.90;;;15.80;87.80;;;;;;5002066;28;20861;-80
2022/10/22 04:44:33;;;;;;;4.43;2.00;;;15.80;87.80;;;;;;4994939;28;20456;-79
2022/10/22 04:47:02;;;;;;;4.43;2.27;;;15.80;87.70;;;;;;4997404;28;20465;-80
2022/10/22 04:49:30;;;;;;;6.30;2.20;;;15.80;87.70;;;;;;5009742;28;20457;-78
2022/10/22 04:51:58;;;;;;;4.20;1.77;;;15.80;87.60;;;;;;5000191;28;20543;-79
2022/10/22 04:54:26;;;;;;;3.50;1.60;;;15.80;87.60;;;;;;4997417;28;20528;-79
2022/10/22 04:57:00;;;;;;;5.47;2.20;;;15.80;87.50;;;;;;5003541;28;20516;-78
2022/10/22 04:59:28;;;;;;;7.07;1.90;;;15.80;87.50;;;;;;5000568;28;20975;-79
2022/10/22 05:01:55;;;;;;;9.37;1.83;;;15.80;87.50;;;;;;5004837;28;21000;-79
2022/10/22 05:04:25;;;;;;;4.33;2.10;;;15.80;87.50;;;;;;5020571;28;20476;-80
2022/10/22 05:06:53;;;;;;;6.00;2.63;;;15.80;87.50;;;;;;5020843;28;20460;-81
2022/10/22 05:09:21;;;;;;;7.23;2.10;;;15.80;87.40;;;;;;5005995;28;20480;-78
2022/10/22 05:11:50;;;;;;;3.93;1.67;;;15.70;87.40;;;;;;5006714;28;20482;-79
2022/10/22 05:14:21;;;;;;;5.20;2.00;;;15.70;87.50;;;;;;5003283;28;20478;-79
2022/10/22 05:16:49;;;;;;;4.63;2.17;;;15.70;87.50;;;;;;5022827;28;20461;-80
2022/10/22 05:19:19;;;;;;;5.10;1.97;;;15.70;87.50;;;;;;4999920;28;20460;-77
2022/10/22 05:21:48;;;;;;;4.40;1.80;;;15.70;87.40;;;;;;5000476;28;20974;-77
2022/10/22 05:24:16;;;;;;;4.53;1.73;;;15.70;87.40;;;;;;5002148;28;20522;-78
2022/10/22 05:26:44;;;;;;;5.93;2.20;;;15.70;87.50;;;;;;5000197;28;20980;-80
2022/10/22 05:29:13;;;;;;;3.90;1.70;;;15.70;87.50;;;;;;5000566;28;21470;-79
2022/10/22 05:31:41;;;;;;;4.23;1.87;;;15.70;87.50;;;;;;4996584;28;20473;-78
2022/10/22 05:34:09;;;;;;;5.47;1.70;;;15.70;87.50;;;;;;5019270;28;20480;-78
2022/10/22 05:36:37;;;;;;;6.13;2.00;;;15.70;87.40;;;;;;5010187;28;20840;-78
2022/10/22 05:39:06;;;;;;;5.10;1.93;;;15.70;87.40;;;;;;5003433;28;21365;-77
2022/10/22 05:41:35;;;;;;;3.60;1.73;;;15.70;87.40;;;;;;4997096;28;21150;-77
2022/10/22 05:44:04;;;;;;;4.57;2.40;;;15.70;87.40;;;;;;5014237;28;20488;-80
2022/10/22 05:46:35;;;;;;;3.90;1.57;;;15.70;87.30;;;;;;5019377;28;20543;-80
2022/10/22 05:49:05;;;;;;;7.17;1.90;;;15.70;87.30;;;;;;4999323;28;20464;-77
2022/10/22 05:51:36;;;;;;;4.50;1.70;;;15.70;87.20;;;;;;4996879;28;20480;-80
2022/10/22 05:54:09;;;;;;;3.70;1.63;;;15.70;87.20;;;;;;5018527;28;20480;-80
2022/10/22 05:56:38;;;;;;;4.57;1.83;;;15.70;87.20;;;;;;5002723;28;20465;-79
2022/10/22 05:59:06;;;;;;;4.23;1.83;;;15.70;87.10;;;;;;5003720;28;20453;-79
2022/10/22 06:01:35;;;;;;;8.13;1.60;;;15.60;87.10;;;;;;5019556;28;20522;-80
2022/10/22 06:04:06;;;;;;;5.40;1.57;;;15.60;87.20;;;;;;5003695;28;20607;-80
2022/10/22 06:06:37;;;;;;;8.13;2.00;;;15.60;87.20;;;;;;5018578;28;20499;-78
2022/10/22 06:09:12;;;;;;;3.50;1.57;;;15.60;87.20;;;;;;5023787;28;20452;-78
2022/10/22 06:11:40;;;;;;;3.40;1.30;;;15.60;87.20;;;;;;5015917;28;20480;-79
2022/10/22 06:14:09;;;;;;;5.77;1.50;;;15.60;87.10;;;;;;5006962;28;20516;-80
2022/10/22 06:16:37;;;;;;;5.47;1.60;;;15.60;87.20;;;;;;5003133;28;20453;-79
2022/10/22 06:19:05;;;;;;;4.40;1.80;;;15.60;87.20;;;;;;5004858;28;20534;-80
2022/10/22 06:21:33;;;;;;;6.03;1.50;;;15.50;87.20;;;;;;5023812;28;20506;-80
2022/10/22 06:24:01;;;;;;;5.00;1.60;;;15.60;87.10;;;;;;5005093;28;20516;-79
2022/10/22 06:26:31;;;;;;;5.07;2.13;;;15.60;87.30;;;;;;5005428;28;20448;-79
2022/10/22 06:29:00;;;;;;;3.70;1.33;;;15.50;87.30;;;;;;5004402;28;20461;-79
2022/10/22 06:31:35;;;;;;;4.73;1.70;;;15.50;87.30;;;;;;4998428;28;20512;-80
2022/10/22 06:34:03;;;;;;;6.67;1.90;;;15.60;87.30;;;;;;5016923;28;20484;-80
2022/10/22 06:36:31;;;;;;;8.03;1.80;;;15.60;87.20;;;;;;5016615;28;20993;-80
2022/10/22 06:38:59;;;;;;;4.00;1.43;;;15.50;87.20;;;;;;4998085;28;20462;-78
2022/10/22 06:41:27;;;;;;;4.13;1.50;;;15.50;87.20;;;;;;5002092;28;20464;-78
2022/10/22 06:43:58;;;;;;;4.57;1.70;;;15.50;87.20;;;;;;4996155;28;20491;-78
2022/10/22 06:46:27;;;;;;;5.40;1.60;;;15.60;87.30;;;;;;5003248;28;20441;-79
2022/10/22 06:48:56;;;;;;;3.43;1.50;;;15.60;87.30;;;;;;4998545;28;20454;-78
2022/10/22 06:51:25;;;;;;;4.20;1.77;;;15.60;87.20;;;;;;5006726;28;20456;-79
2022/10/22 06:53:54;;;;;;;5.23;1.60;;;15.60;87.10;;;;;;5001095;28;20487;-80
2022/10/22 06:56:24;;;;;;;4.90;1.80;;;15.60;87.10;;;;;;5000940;28;20456;-78
2022/10/22 06:58:54;;;;;;;5.17;1.50;;;15.60;87.10;;;;;;5023446;28;20461;-78
2022/10/22 07:01:26;;;;;;;4.30;1.50;;;15.60;87.10;;;;;;5002417;28;20801;-78
2022/10/22 07:03:54;;;;;;;3.40;1.37;;;15.60;87.10;;;;;;5017824;28;20484;-79
2022/10/22 07:06:24;;;;;;;6.83;1.83;;;15.60;87.00;;;;;;4997133;28;20956;-79
2022/10/22 07:08:53;;;;;;;3.83;1.47;;;15.60;87.00;;;;;;4999152;28;20523;-78
2022/10/22 07:11:24;;;;;;;4.60;1.20;;;15.60;87.10;;;;;;4998137;28;20881;-78
2022/10/22 07:13:54;;;;;;;3.60;1.40;;;15.50;87.10;;;;;;4997596;28;20532;-79
2022/10/22 07:16:24;;;;;;;3.47;1.33;;;15.50;87.20;;;;;;5018547;28;20449;-80
2022/10/22 07:18:58;;;;;;;5.23;1.23;;;15.50;87.20;;;;;;5000238;28;20818;-78
2022/10/22 07:21:27;;;;;;;6.70;1.40;;;15.60;87.10;;;;;;4996840;28;20453;-78
2022/10/22 07:23:55;;;;;;;4.87;1.23;;;15.60;87.00;;;;;;5002127;28;20483;-79
2022/10/22 07:26:24;;;;;;;4.83;1.23;;;15.60;87.10;;;;;;5002565;28;20460;-78
2022/10/22 07:28:52;;;;;;;3.50;1.33;;;15.60;87.00;;;;;;4996949;28;21004;-79
2022/10/22 07:31:20;;;;;;;6.07;1.70;;;15.60;87.00;;;;;;4999381;28;20453;-79
2022/10/22 07:33:49;;;;;;;3.50;1.17;;;15.60;87.00;;;;;;5019650;28;20481;-79
2022/10/22 07:36:17;;;;;;;7.33;1.40;;;15.60;87.00;;;;;;4997844;28;20458;-78
2022/10/22 07:38:46;;;;;;;4.23;1.50;;;15.60;86.90;;;;;;5002191;28;20877;-78
2022/10/22 07:41:15;;;;;;;4.80;1.30;;;15.60;86.90;;;;;;5016451;28;21116;-79
2022/10/22 07:43:44;;;;;;;3.33;1.23;;;15.70;86.90;;;;;;4998715;28;20830;-78
2022/10/22 07:46:12;;;;;;;4.37;1.20;;;15.70;86.80;;;;;;5003602;28;20465;-78
2022/10/22 07:48:40;;;;;;;12.70;1.50;;;15.70;86.80;;;;;;5000089;28;20449;-80
2022/10/22 07:51:09;;;;;;;4.37;1.30;;;15.70;86.80;;;;;;5015814;28;20477;-78
2022/10/22 07:53:37;;;;;;;4.17;1.23;;;15.70;86.80;;;;;;5000939;28;20485;-78
2022/10/22 07:56:06;;;;;;;4.57;1.20;;;15.70;86.80;;;;;;4995899;28;20446;-80
2022/10/22 07:58:34;;;;;;;4.63;1.37;;;15.70;86.80;;;;;;5005081;28;20465;-78
2022/10/22 08:01:05;;;;;;;5.17;1.40;;;15.70;86.80;;;;;;4998873;28;20450;-78
2022/10/22 08:03:33;;;;;;;3.33;1.23;;;15.70;86.80;;;;;;4999481;28;21072;-80
2022/10/22 08:06:02;;;;;;;3.20;1.17;;;15.70;86.80;;;;;;4999777;28;20528;-78
2022/10/22 08:08:32;;;;;;;8.13;1.30;;;15.70;86.80;;;;;;4997137;28;20453;-81
2022/10/22 08:11:01;;;;;;;10.20;1.50;;;15.70;86.80;;;;;;5004220;28;20459;-78
2022/10/22 08:13:30;;;;;;;4.83;1.20;;;15.70;86.80;;;;;;4994270;28;20485;-79
2022/10/22 08:15:59;;;;;;;7.63;1.47;;;15.70;86.80;;;;;;5018444;28;20475;-81
2022/10/22 08:18:27;;;;;;;7.43;1.37;;;15.80;86.80;;;;;;4995668;28;20458;-80
2022/10/22 08:20:55;;;;;;;6.40;1.33;;;15.80;86.90;;;;;;4994888;28;20464;-80
2022/10/22 08:23:23;;;;;;;5.50;1.13;;;15.80;87.00;;;;;;5017838;28;20479;-78
2022/10/22 08:25:57;;;;;;;4.53;1.10;;;15.90;87.00;;;;;;5000654;28;20530;-76
2022/10/22 08:28:27;;;;;;;2.97;0.87;;;15.90;86.90;;;;;;4997038;28;20507;-78
2022/10/22 08:30:55;;;;;;;6.17;0.90;;;15.90;86.80;;;;;;4991330;28;20515;-78
2022/10/22 08:33:23;;;;;;;3.10;0.80;;;15.90;86.80;;;;;;5011611;28;20511;-78
2022/10/22 08:35:52;;;;;;;3.83;0.67;;;16.00;86.70;;;;;;4995359;28;20526;-77
2022/10/22 08:38:20;;;;;;;4.13;1.10;;;16.00;86.70;;;;;;4999392;28;20515;-78
2022/10/22 08:40:51;;;;;;;3.10;0.90;;;16.00;86.60;;;;;;4996464;28;20464;-79
2022/10/22 08:44:03;;;;;;;6.40;1.10;;;16.00;86.60;;;;;;5014243;28;20504;-78
2022/10/22 08:46:55;;;;;;;4.50;1.10;;;16.00;86.60;;;;;;4993305;28;20468;-77
2022/10/22 08:49:28;;;;;;;4.63;0.93;;;16.00;86.70;;;;;;4996597;28;21056;-79
2022/10/22 08:51:58;;;;;;;4.23;1.10;;;16.00;86.70;;;;;;4997848;28;20449;-76
2022/10/22 08:54:36;;;;;;;3.30;0.97;;;16.00;86.70;;;;;;5013926;28;20489;-78
2022/10/22 08:57:22;;;;;;;3.33;0.80;;;16.00;86.60;;;;;;5017230;28;20483;-79
2022/10/22 08:59:58;;;;;;;4.97;1.10;;;16.00;86.60;;;;;;4997159;28;20512;-79
2022/10/22 09:02:37;;;;;;;5.50;0.93;;;16.10;86.60;;;;;;4999945;28;20522;-78
2022/10/22 09:05:20;;;;;;;5.60;1.70;;;16.10;86.60;;;;;;4999074;28;20452;-78
2022/10/22 09:07:49;;;;;;;4.23;1.10;;;16.10;86.60;;;;;;5001191;28;20453;-79
2022/10/22 09:10:19;;;;;;;6.90;0.97;;;16.10;86.60;;;;;;4997459;28;20457;-77
2022/10/22 09:12:48;;;;;;;4.80;1.17;;;16.10;86.60;;;;;;5000246;28;20489;-77
2022/10/22 09:15:19;;;;;;;6.00;1.30;;;16.20;86.60;;;;;;4998346;28;20453;-77
2022/10/22 09:18:00;;;;;;;4.30;1.23;;;16.20;86.50;;;;;;4999460;28;20465;-77
2022/10/22 09:20:38;;;;;;;3.30;0.97;;;16.20;86.60;;;;;;5017866;28;20468;-77
2022/10/22 09:23:23;;;;;;;3.70;0.97;;;16.30;86.50;;;;;;5004563;28;20506;-77
2022/10/22 09:25:52;;;;;;;3.80;1.00;;;16.30;86.60;;;;;;5020713;28;20516;-77
2022/10/22 09:28:20;;;;;;;3.63;0.90;;;16.30;86.50;;;;;;5017141;28;20508;-80
2022/10/22 09:30:50;;;;;;;4.23;1.10;;;16.30;86.50;;;;;;5001953;28;20457;-78
2022/10/22 09:33:23;;;;;;;4.30;1.00;;;16.40;86.50;;;;;;5004114;28;20485;-77
2022/10/22 09:35:53;;;;;;;6.20;1.03;;;16.40;86.50;;;;;;5018094;28;20512;-77
2022/10/22 09:38:25;;;;;;;7.70;1.37;;;16.40;86.50;;;;;;5018614;28;20511;-77
2022/10/22 09:40:56;;;;;;;4.50;1.00;;;16.50;86.50;;;;;;5006200;28;20855;-78
2022/10/22 09:43:24;;;;;;;5.93;0.90;;;16.50;86.30;;;;;;5000821;28;20469;-79
2022/10/22 09:45:58;;;;;;;4.57;1.37;;;16.50;86.30;;;;;;4999429;28;20500;-77
2022/10/22 09:48:31;;;;;;;4.13;0.80;;;16.60;86.30;;;;;;5006294;28;20467;-77
2022/10/22 09:51:04;;;;;;;3.00;0.93;;;16.60;86.30;;;;;;5007142;28;20452;-77
2022/10/22 09:53:37;;;;;;;4.73;0.77;;;16.60;86.30;;;;;;5002372;28;20504;-78
2022/10/22 09:56:09;;;;;;;5.43;1.03;;;16.70;86.20;;;;;;4997567;28;20460;-78
2022/10/22 09:58:48;;;;;;;5.73;0.80;;;16.70;86.20;;;;;;5001692;28;20460;-77
2022/10/22 10:01:19;;;;;;;4.90;1.30;;;16.70;86.20;;;;;;5000240;28;20452;-80
2022/10/22 10:03:49;;;;;;;7.03;0.90;;;16.80;86.00;;;;;;5000239;28;20461;-77
2022/10/22 10:06:21;;;;;;;5.60;1.07;;;16.80;86.00;;;;;;5000131;28;20527;-78
2022/10/22 10:08:50;;;;;;;5.70;1.40;;;16.90;85.90;;;;;;4999702;28;20453;-79
2022/10/22 10:11:28;;;;;;;4.17;0.80;;;16.90;86.00;;;;;;5022465;28;21208;-78
2022/10/22 10:14:11;;;;;;;4.70;0.80;;;16.90;86.00;;;;;;5004007;28;20982;-78
2022/10/22 10:16:57;;;;;;;3.63;0.83;;;17.00;85.80;;;;;;5013956;28;20464;-78
2022/10/22 10:19:42;;;;;;;6.90;1.00;;;17.00;85.80;;;;;;5002948;28;20500;-78
2022/10/22 10:22:20;;;;;;;3.60;0.83;;;17.00;85.70;;;;;;5018044;28;20519;-78
2022/10/22 10:25:03;;;;;;;2.80;0.60;;;17.10;85.60;;;;;;5017141;28;20449;-76
2022/10/22 10:27:37;;;;;;;3.60;0.87;;;17.10;85.50;;;;;;4996039;28;20446;-77
2022/10/22 10:30:12;;;;;;;3.90;0.63;;;17.10;85.60;;;;;;4992931;28;20511;-79
2022/10/22 10:33:01;;;;;;;3.83;0.60;;;17.20;85.50;;;;;;5016876;28;20959;-79
2022/10/22 10:35:39;;;;;;;3.80;0.93;;;17.20;85.50;;;;;;5000804;28;20857;-78
2022/10/22 10:38:21;;;;;;;5.40;2.80;;;17.30;85.40;;;;;;5003823;28;20460;-79
2022/10/22 10:41:01;;;;;;;4.80;3.07;;;17.30;85.40;;;;;;4998781;28;20465;-78
2022/10/22 10:43:38;;;;;;;13.80;12.03;;;17.30;85.50;;;;;;5014442;28;20466;-78
2022/10/22 10:46:15;;;;;;;10.13;9.10;;;17.40;85.30;;;;;;5003187;28;20465;-78
2022/10/22 10:48:56;;;;;;;4.77;2.93;;;17.40;85.20;;;;;;5016986;28;20539;-78
2022/10/22 10:51:36;;;;;;;3.73;1.37;;;17.40;85.30;;;;;;5002926;28;20457;-77
2022/10/22 10:54:27;;;;;;;4.40;1.30;;;17.50;85.30;;;;;;5013482;28;20517;-76
2022/10/22 10:56:58;;;;;;;3.50;1.20;;;17.60;85.10;;;;;;5001527;28;20461;-79
2022/10/22 10:59:40;;;;;;;3.63;1.53;;;17.60;85.10;;;;;;5000988;28;20448;-78
2022/10/22 11:02:29;;;;;;;4.67;1.30;;;17.60;85.00;;;;;;5003297;28;20876;-78
2022/10/22 11:05:18;;;;;;;4.50;1.00;;;17.70;84.70;;;;;;4997529;28;20465;-79
2022/10/22 11:07:50;;;;;;;4.23;1.10;;;17.70;84.70;;;;;;5019196;28;20519;-77
2022/10/22 11:10:29;;;;;;;4.97;1.00;;;17.80;84.50;;;;;;4999278;28;20864;-77
2022/10/22 11:13:03;;;;;;;5.10;1.03;;;17.80;84.50;;;;;;5010254;28;20481;-77
2022/10/22 11:15:33;;;;;;;5.00;1.17;;;17.80;84.40;;;;;;5003436;28;20529;-78
2022/10/22 11:18:10;;;;;;;5.63;2.60;;;17.80;84.20;;;;;;5004169;28;20463;-78
2022/10/22 11:20:50;;;;;;;5.77;2.00;;;17.80;84.00;;;;;;5013851;28;20814;-78
2022/10/22 11:23:24;;;;;;;7.33;1.87;;;17.80;84.10;;;;;;5004765;28;20491;-77
2022/10/22 11:25:52;;;;;;;6.20;0.93;;;17.80;84.00;;;;;;5023340;28;20539;-78
2022/10/22 11:28:25;;;;;;;4.00;1.33;;;17.80;84.00;;;;;;5003195;28;20453;-77
2022/10/22 11:31:01;;;;;;;5.23;1.00;;;17.80;83.90;;;;;;5019430;28;20463;-78
2022/10/22 11:33:37;;;;;;;3.50;0.90;;;17.80;83.80;;;;;;5008884;28;20499;-78
2022/10/22 11:36:08;;;;;;;5.90;0.80;;;17.80;83.90;;;;;;5005447;28;20460;-77
2022/10/22 11:38:37;;;;;;;9.37;5.07;;;17.80;83.90;;;;;;5008063;28;20503;-79
2022/10/22 11:41:09;;;;;;;5.53;1.40;;;17.80;84.00;;;;;;5005250;28;20457;-79
2022/10/22 11:43:56;;;;;;;5.73;1.20;;;17.90;84.00;;;;;;5002820;28;20522;-78
2022/10/22 11:46:35;;;;;;;9.20;1.43;;;18.00;83.80;;;;;;5003939;28;20499;-78
2022/10/22 11:49:16;;;;;;;4.03;1.00;;;18.00;83.70;;;;;;5008039;28;20496;-79
2022/10/22 11:51:46;;;;;;;4.77;1.10;;;18.10;83.80;;;;;;4998797;28;20955;-78
2022/10/22 11:54:47;;;;;;;5.63;1.30;;;18.10;83.80;;;;;;5001276;28;20485;-78
2022/10/22 11:57:26;;;;;;;3.50;1.10;;;18.10;83.80;;;;;;4946283;28;20462;-79
2022/10/22 11:59:58;;;;;;;20.27;4.23;;;18.20;83.80;;;;;;4945341;28;21061;-79
2022/10/22 12:02:40;;;;;;;10.60;3.30;;;18.20;83.80;;;;;;4969258;28;20485;-79
2022/10/22 12:05:36;;;;;;;7.83;3.07;;;18.20;83.70;;;;;;5000817;28;20453;-79
2022/10/22 12:08:17;;;;;;;4.60;1.53;;;18.20;83.60;;;;;;4985567;28;21029;-78
2022/10/22 12:11:04;;;;;;;8.40;1.70;;;18.20;83.60;;;;;;4997156;28;20510;-78
2022/10/22 12:13:50;;;;;;;7.30;2.23;;;18.20;83.70;;;;;;4993985;28;21026;-79
2022/10/22 12:16:22;;;;;;;5.30;1.43;;;18.20;83.80;;;;;;4998400;28;20526;-77
2022/10/22 12:19:15;;;;;;;5.73;2.20;;;18.20;83.80;;;;;;5017346;28;21005;-79
2022/10/22 12:21:48;;;;;;;4.20;1.37;;;18.20;83.80;;;;;;4996202;28;20544;-79
2022/10/22 12:24:21;;;;;;;20.93;5.87;;;18.20;83.90;;;;;;4998914;28;20488;-79
2022/10/22 12:26:51;;;;;;;5.17;2.07;;;18.30;83.90;;;;;;4995500;28;20460;-79
2022/10/22 12:29:24;;;;;;;8.63;2.00;;;18.30;83.80;;;;;;4992998;28;20454;-78
2022/10/22 12:31:52;;;;;;;7.97;2.03;;;18.40;83.80;;;;;;4994180;28;20460;-79
2022/10/22 12:34:24;;;;;;;4.27;1.20;;;18.40;83.70;;;;;;4993567;28;20484;-77
2022/10/22 12:36:54;;;;;;;5.73;2.60;;;18.40;83.70;;;;;;5016483;28;20527;-78
2022/10/22 12:39:26;;;;;;;3.40;1.20;;;18.50;83.70;;;;;;5001167;28;20551;-77
2022/10/22 12:41:55;;;;;;;4.93;1.57;;;18.50;83.70;;;;;;4996214;28;20503;-77
2022/10/22 12:44:23;;;;;;;5.10;1.20;;;18.50;83.70;;;;;;4992025;28;20539;-80
2022/10/22 12:46:51;;;;;;;5.50;1.43;;;18.50;83.60;;;;;;4997307;28;21145;-78
2022/10/22 12:49:33;;;;;;;13.67;3.43;;;18.60;83.60;;;;;;5000968;28;20458;-78
2022/10/22 12:52:04;;;;;;;6.97;1.83;;;18.60;83.60;;;;;;5003772;28;20452;-77
2022/10/22 12:54:34;;;;;;;10.20;2.30;;;18.60;83.60;;;;;;5002549;28;21091;-76
2022/10/22 12:57:02;;;;;;;5.30;1.60;;;18.60;83.40;;;;;;5003071;28;20448;-79
2022/10/22 12:59:34;;;;;;;4.90;1.33;;;18.60;83.40;;;;;;5007636;28;20461;-78
2022/10/22 13:02:04;;;;;;;3.63;1.30;;;18.70;83.40;;;;;;5021408;28;20536;-79
2022/10/22 13:04:38;;;;;;;5.00;2.20;;;18.70;83.40;;;;;;5003637;28;20910;-78
2022/10/22 13:07:17;;;;;;;3.47;1.33;;;18.70;83.40;;;;;;5004969;28;20520;-78
2022/10/22 13:09:58;;;;;;;3.50;0.80;;;18.70;83.30;;;;;;5002533;28;20499;-77